Time;durP1;ratioP1;P1;durP2;ratioP2;P2;SDS_P1;SDS_P2;PMS_P1;PMS_P2;Temp;Humidity;BMP_temperature;BMP_pressure;BME280_temperature;BME280_humidity;BME280_pressure;Samples;Min_cycle;Max_cycle;Signal;HPM_P1;HPM_P2
2022/03/08 00:00:33;;;;;;;26.17;17.40;;;3.50;65.80;;;;;;5014528;28;20233;-69
2022/03/08 00:03:00;;;;;;;29.27;19.60;;;3.40;65.70;;;;;;4997993;28;20217;-69
2022/03/08 00:05:28;;;;;;;31.87;18.20;;;3.20;65.10;;;;;;5004400;28;20212;-69
2022/03/08 00:07:55;;;;;;;28.27;19.00;;;3.10;65.30;;;;;;5021370;28;20217;-69
2022/03/08 00:10:24;;;;;;;29.40;18.70;;;3.00;65.80;;;;;;5019712;28;20594;-69
2022/03/08 00:12:52;;;;;;;28.80;18.67;;;3.00;66.40;;;;;;5015650;28;20219;-69
2022/03/08 00:15:24;;;;;;;28.73;18.43;;;2.90;67.40;;;;;;5026789;28;20226;-69
2022/03/08 00:17:56;;;;;;;34.37;20.73;;;2.90;66.80;;;;;;5018884;28;20602;-69
2022/03/08 00:20:23;;;;;;;36.03;20.37;;;2.90;66.90;;;;;;5014880;28;20543;-69
2022/03/08 00:22:51;;;;;;;34.07;20.50;;;3.00;67.20;;;;;;5007775;28;20542;-69
2022/03/08 00:25:18;;;;;;;31.80;19.73;;;3.00;67.30;;;;;;5020622;28;20208;-69
2022/03/08 00:27:48;;;;;;;29.07;18.47;;;3.00;67.20;;;;;;5025586;28;20220;-69
2022/03/08 00:30:18;;;;;;;27.33;17.87;;;3.10;67.10;;;;;;5030167;28;20203;-69
2022/03/08 00:32:46;;;;;;;31.57;20.50;;;3.20;67.10;;;;;;5021790;28;20210;-69
2022/03/08 00:35:14;;;;;;;30.53;18.80;;;3.30;67.10;;;;;;5018055;28;20231;-69
2022/03/08 00:37:42;;;;;;;35.00;19.87;;;3.30;67.00;;;;;;5000744;28;20238;-69
2022/03/08 00:40:11;;;;;;;34.33;20.30;;;3.40;67.00;;;;;;5030137;28;20204;-69
2022/03/08 00:42:38;;;;;;;30.43;20.43;;;3.40;67.00;;;;;;4999649;28;20659;-69
2022/03/08 00:45:07;;;;;;;30.73;18.77;;;3.40;66.90;;;;;;5019595;28;20204;-69
2022/03/08 00:47:41;;;;;;;31.27;20.20;;;3.50;66.90;;;;;;5019677;28;20665;-69
2022/03/08 00:50:14;;;;;;;29.57;18.70;;;3.50;66.80;;;;;;5010619;28;20215;-69
2022/03/08 00:52:41;;;;;;;31.63;19.20;;;3.50;66.70;;;;;;5009226;28;20216;-69
2022/03/08 00:55:09;;;;;;;34.40;19.50;;;3.60;66.70;;;;;;5010362;28;20208;-69
2022/03/08 00:57:37;;;;;;;29.33;18.83;;;3.50;66.40;;;;;;5001484;28;20232;-69
2022/03/08 01:00:09;;;;;;;30.83;18.70;;;3.40;66.20;;;;;;5003884;28;20268;-69
2022/03/08 01:02:36;;;;;;;37.37;19.97;;;3.30;66.70;;;;;;5022576;28;20230;-69
2022/03/08 01:05:04;;;;;;;35.00;18.90;;;3.00;67.30;;;;;;5004911;28;20267;-69
2022/03/08 01:07:31;;;;;;;29.77;19.17;;;2.90;67.90;;;;;;4999609;28;20205;-69
2022/03/08 01:09:58;;;;;;;32.97;19.53;;;2.90;68.60;;;;;;5019058;28;20200;-69
2022/03/08 01:12:25;;;;;;;33.33;18.63;;;2.80;69.30;;;;;;5009967;28;20208;-69
2022/03/08 01:14:52;;;;;;;26.93;18.13;;;2.80;69.70;;;;;;5007892;28;20577;-69
2022/03/08 01:17:19;;;;;;;29.27;18.50;;;2.80;69.70;;;;;;5013169;28;20224;-69
2022/03/08 01:19:47;;;;;;;31.63;19.40;;;2.90;70.00;;;;;;5004154;28;20524;-69
2022/03/08 01:22:14;;;;;;;32.50;19.80;;;2.80;70.60;;;;;;5008119;28;20285;-69
2022/03/08 01:24:41;;;;;;;30.53;19.23;;;2.90;70.80;;;;;;5010357;28;20212;-69
2022/03/08 01:27:08;;;;;;;35.03;19.93;;;2.80;70.60;;;;;;5011730;28;20205;-69
2022/03/08 01:29:36;;;;;;;29.77;19.00;;;2.80;70.70;;;;;;5017443;28;20218;-69
2022/03/08 01:32:03;;;;;;;32.33;19.57;;;2.80;70.70;;;;;;5005583;28;20205;-70
2022/03/08 01:34:31;;;;;;;27.70;18.97;;;2.80;70.90;;;;;;5001746;28;20386;-69
2022/03/08 01:36:58;;;;;;;32.90;20.70;;;2.90;71.40;;;;;;5024325;28;20592;-69
2022/03/08 01:39:25;;;;;;;29.77;19.17;;;2.90;71.80;;;;;;4998910;28;20655;-69
2022/03/08 01:41:53;;;;;;;32.30;20.23;;;2.90;72.10;;;;;;5008126;28;20200;-69
2022/03/08 01:44:21;;;;;;;32.10;19.93;;;2.90;72.30;;;;;;5014796;28;20204;-69
2022/03/08 01:46:48;;;;;;;32.20;20.87;;;3.00;72.80;;;;;;5012441;28;20211;-69
2022/03/08 01:49:15;;;;;;;36.63;21.10;;;3.10;73.30;;;;;;4998061;28;20557;-69
2022/03/08 01:51:43;;;;;;;30.83;21.00;;;3.10;73.30;;;;;;5002978;28;20247;-69
2022/03/08 01:54:11;;;;;;;34.43;20.97;;;3.20;73.60;;;;;;5001054;28;20200;-70
2022/03/08 01:56:38;;;;;;;31.97;20.80;;;3.30;73.60;;;;;;5005592;28;20198;-69
2022/03/08 01:59:05;;;;;;;33.23;20.77;;;3.30;73.40;;;;;;5010685;28;20229;-69
2022/03/08 02:01:32;;;;;;;33.87;21.13;;;3.40;73.20;;;;;;5020472;28;20203;-69
2022/03/08 02:03:59;;;;;;;35.17;21.83;;;3.40;73.10;;;;;;5019987;28;20713;-69
2022/03/08 02:06:28;;;;;;;33.43;20.53;;;3.50;72.90;;;;;;5025760;28;20202;-69
2022/03/08 02:08:55;;;;;;;35.93;21.87;;;3.50;72.90;;;;;;5026323;28;20213;-69
2022/03/08 02:11:23;;;;;;;34.77;22.20;;;3.50;72.90;;;;;;5022449;28;20208;-69
2022/03/08 02:13:50;;;;;;;32.33;20.90;;;3.50;72.80;;;;;;5027497;28;20217;-69
2022/03/08 02:16:17;;;;;;;39.70;21.93;;;3.60;72.90;;;;;;5022692;28;20756;-69
2022/03/08 02:18:44;;;;;;;33.90;21.27;;;3.60;72.70;;;;;;5027721;28;20311;-69
2022/03/08 02:21:11;;;;;;;36.33;21.10;;;3.60;72.60;;;;;;5027937;28;20211;-69
2022/03/08 02:23:38;;;;;;;35.57;21.73;;;3.60;72.40;;;;;;5018210;28;20204;-69
2022/03/08 02:26:05;;;;;;;37.37;22.07;;;3.70;72.10;;;;;;5018077;28;20217;-69
2022/03/08 02:28:33;;;;;;;38.27;23.00;;;3.70;72.10;;;;;;5023484;28;20199;-69
2022/03/08 02:31:00;;;;;;;33.53;21.47;;;3.70;72.10;;;;;;5025573;28;20606;-69
2022/03/08 02:33:27;;;;;;;32.20;21.67;;;3.70;72.20;;;;;;5018956;28;20233;-69
2022/03/08 02:35:54;;;;;;;34.53;21.80;;;3.70;72.30;;;;;;5015542;28;20207;-69
2022/03/08 02:38:22;;;;;;;35.80;22.23;;;3.70;72.50;;;;;;5025706;28;20315;-69
2022/03/08 02:40:50;;;;;;;40.50;22.67;;;3.70;72.60;;;;;;5026519;28;20203;-69
2022/03/08 02:43:18;;;;;;;34.60;21.50;;;3.70;72.40;;;;;;5028464;28;20282;-69
2022/03/08 02:45:45;;;;;;;34.93;21.13;;;3.70;72.40;;;;;;5023922;28;20210;-69
2022/03/08 02:48:12;;;;;;;34.90;21.07;;;3.70;72.40;;;;;;5017218;28;20213;-69
2022/03/08 02:50:39;;;;;;;32.40;21.10;;;3.70;72.40;;;;;;5021307;28;20234;-69
2022/03/08 02:53:06;;;;;;;30.33;19.93;;;3.70;72.40;;;;;;5006043;28;20210;-69
2022/03/08 02:55:36;;;;;;;34.00;21.80;;;3.70;72.30;;;;;;5020120;28;20288;-69
2022/03/08 02:58:05;;;;;;;33.50;21.37;;;3.70;72.40;;;;;;5000134;28;20239;-69
2022/03/08 03:00:33;;;;;;;33.03;20.73;;;3.70;72.30;;;;;;5021422;28;20793;-69
2022/03/08 03:03:01;;;;;;;33.13;20.83;;;3.70;72.40;;;;;;5006686;28;20636;-69
2022/03/08 03:05:28;;;;;;;40.23;22.47;;;3.70;72.40;;;;;;4986617;28;20297;-69
2022/03/08 03:07:55;;;;;;;31.97;21.37;;;3.60;72.30;;;;;;5020181;28;20264;-69
2022/03/08 03:10:23;;;;;;;33.17;21.03;;;3.60;72.60;;;;;;4999924;28;20225;-69
2022/03/08 03:12:53;;;;;;;33.57;21.60;;;3.60;72.70;;;;;;5023733;28;20199;-69
2022/03/08 03:15:21;;;;;;;34.13;19.17;;;3.50;72.80;;;;;;5024749;28;20208;-69
2022/03/08 03:17:49;;;;;;;30.30;19.90;;;3.50;72.70;;;;;;5004791;28;20247;-69
2022/03/08 03:20:19;;;;;;;34.23;20.07;;;3.50;72.70;;;;;;5014633;28;20209;-69
2022/03/08 03:22:47;;;;;;;32.30;21.07;;;3.50;72.70;;;;;;5019843;28;20647;-69
2022/03/08 03:25:16;;;;;;;34.17;19.93;;;3.40;72.60;;;;;;5007044;28;20200;-69
2022/03/08 03:27:44;;;;;;;33.57;20.67;;;3.40;72.70;;;;;;5020159;28;20247;-69
2022/03/08 03:30:14;;;;;;;33.87;21.33;;;3.40;72.70;;;;;;5011684;28;20261;-69
2022/03/08 03:32:41;;;;;;;33.53;20.87;;;3.40;72.70;;;;;;5016346;28;20207;-69
2022/03/08 03:35:09;;;;;;;28.97;19.10;;;3.40;72.60;;;;;;5025371;28;20213;-69
2022/03/08 03:37:36;;;;;;;31.33;20.43;;;3.40;72.40;;;;;;5008594;28;20208;-69
2022/03/08 03:40:05;;;;;;;32.47;20.47;;;3.50;72.00;;;;;;5006376;28;20206;-69
2022/03/08 03:42:32;;;;;;;32.63;20.87;;;3.50;71.80;;;;;;5015669;28;20542;-69
2022/03/08 03:44:59;;;;;;;32.43;20.33;;;3.50;71.70;;;;;;5019653;28;20202;-69
2022/03/08 03:47:27;;;;;;;35.80;20.17;;;3.50;71.50;;;;;;5023924;28;20196;-69
2022/03/08 03:49:54;;;;;;;36.60;21.83;;;3.50;71.50;;;;;;5022050;28;20223;-69
2022/03/08 03:52:21;;;;;;;31.37;20.87;;;3.50;71.40;;;;;;5016287;28;20202;-69
2022/03/08 03:54:48;;;;;;;29.90;20.20;;;3.50;71.10;;;;;;5017860;28;20741;-69
2022/03/08 03:57:15;;;;;;;30.63;19.97;;;3.50;70.90;;;;;;5026386;28;20220;-69
2022/03/08 03:59:42;;;;;;;32.03;20.83;;;3.50;70.70;;;;;;5022500;28;20235;-69
2022/03/08 04:02:09;;;;;;;28.87;19.33;;;3.50;70.60;;;;;;5017450;28;20200;-69
2022/03/08 04:04:36;;;;;;;30.27;19.93;;;3.50;70.60;;;;;;5015825;28;20214;-69
2022/03/08 04:07:03;;;;;;;35.20;20.47;;;3.50;70.70;;;;;;5018588;28;20257;-69
2022/03/08 04:09:30;;;;;;;28.50;19.03;;;3.50;70.60;;;;;;5023023;28;20213;-69
2022/03/08 04:11:57;;;;;;;28.90;19.97;;;3.40;70.50;;;;;;5008069;28;20670;-69
2022/03/08 04:14:25;;;;;;;30.60;19.73;;;3.50;70.60;;;;;;5015916;28;20205;-69
2022/03/08 04:16:53;;;;;;;35.47;22.00;;;3.40;70.40;;;;;;5015637;28;20209;-68
2022/03/08 04:19:22;;;;;;;29.37;19.47;;;3.40;70.40;;;;;;5021890;28;20227;-68
2022/03/08 04:21:49;;;;;;;33.37;19.27;;;3.30;70.40;;;;;;5022446;28;20211;-68
2022/03/08 04:24:16;;;;;;;28.60;19.87;;;3.30;70.50;;;;;;5017979;28;20205;-68
2022/03/08 04:26:43;;;;;;;32.73;20.90;;;3.30;70.70;;;;;;5014995;28;20241;-69
2022/03/08 04:29:10;;;;;;;31.43;20.63;;;3.20;70.80;;;;;;5026469;28;20521;-69
2022/03/08 04:31:37;;;;;;;32.07;19.33;;;3.20;71.00;;;;;;5025758;28;20214;-69
2022/03/08 04:34:04;;;;;;;33.53;21.27;;;3.20;71.00;;;;;;5026888;28;20231;-69
2022/03/08 04:36:31;;;;;;;31.80;20.03;;;3.20;71.00;;;;;;5020680;28;20215;-69
2022/03/08 04:38:58;;;;;;;36.10;21.60;;;3.20;71.30;;;;;;4999301;28;20230;-68
2022/03/08 04:41:26;;;;;;;33.00;20.93;;;3.10;71.30;;;;;;5003952;28;20212;-68
2022/03/08 04:43:53;;;;;;;31.97;20.17;;;3.10;71.40;;;;;;5024235;28;20636;-69
2022/03/08 04:46:20;;;;;;;27.67;19.27;;;3.10;71.40;;;;;;5018774;28;20595;-69
2022/03/08 04:48:47;;;;;;;26.27;18.63;;;3.10;71.30;;;;;;5015202;28;20215;-69
2022/03/08 04:51:14;;;;;;;35.03;20.77;;;3.10;71.20;;;;;;5022477;28;20633;-68
2022/03/08 04:53:42;;;;;;;27.73;18.47;;;3.00;71.10;;;;;;5024072;28;20205;-68
2022/03/08 04:56:09;;;;;;;31.60;19.90;;;3.00;71.20;;;;;;5018958;28;20572;-68
2022/03/08 04:58:36;;;;;;;34.17;21.00;;;3.00;71.10;;;;;;5010768;28;20649;-68
2022/03/08 05:01:03;;;;;;;36.00;21.03;;;2.90;71.20;;;;;;5022504;28;20248;-68
2022/03/08 05:03:30;;;;;;;31.23;20.17;;;2.90;71.50;;;;;;5021513;28;20599;-68
2022/03/08 05:05:57;;;;;;;34.70;21.03;;;2.80;71.70;;;;;;5029893;28;20192;-68
2022/03/08 05:08:25;;;;;;;36.43;21.00;;;2.80;71.80;;;;;;4989833;28;20233;-68
2022/03/08 05:10:52;;;;;;;29.47;18.60;;;2.70;72.00;;;;;;5018831;28;20517;-68
2022/03/08 05:13:19;;;;;;;29.83;18.47;;;2.70;72.20;;;;;;5022869;28;20208;-68
2022/03/08 05:15:48;;;;;;;32.27;19.17;;;2.60;71.70;;;;;;5026098;28;20548;-68
2022/03/08 05:18:17;;;;;;;34.70;22.63;;;2.50;71.30;;;;;;5018496;28;20688;-68
2022/03/08 05:20:44;;;;;;;33.67;20.33;;;2.40;72.00;;;;;;5018378;28;20204;-68
2022/03/08 05:23:11;;;;;;;34.60;21.00;;;2.40;72.50;;;;;;5019106;28;20196;-68
2022/03/08 05:25:39;;;;;;;32.13;20.97;;;2.40;72.90;;;;;;5028404;28;20204;-69
2022/03/08 05:28:06;;;;;;;28.03;18.43;;;2.30;73.20;;;;;;5027290;28;20207;-68
2022/03/08 05:30:33;;;;;;;28.07;18.03;;;2.20;72.80;;;;;;5028065;28;20624;-68
2022/03/08 05:33:00;;;;;;;29.53;17.60;;;2.20;72.30;;;;;;5016277;28;20262;-68
2022/03/08 05:35:27;;;;;;;30.67;18.37;;;2.10;72.10;;;;;;5022278;28;20648;-68
2022/03/08 05:37:54;;;;;;;35.33;21.63;;;2.10;72.10;;;;;;4999264;28;20255;-68
2022/03/08 05:40:21;;;;;;;30.33;20.10;;;2.00;72.40;;;;;;5023712;28;20534;-68
2022/03/08 05:42:48;;;;;;;31.83;21.67;;;2.00;73.00;;;;;;5019671;28;20208;-68
2022/03/08 05:45:15;;;;;;;31.87;20.83;;;2.00;73.60;;;;;;5004418;28;20204;-68
2022/03/08 05:47:43;;;;;;;37.03;21.20;;;2.00;73.80;;;;;;5011209;28;20282;-68
2022/03/08 05:50:11;;;;;;;37.80;22.47;;;2.00;74.00;;;;;;5024005;28;20219;-68
2022/03/08 05:52:38;;;;;;;40.13;21.83;;;1.90;74.60;;;;;;5019843;28;20219;-68
2022/03/08 05:55:06;;;;;;;40.13;22.97;;;2.00;74.60;;;;;;5027799;28;20210;-68
2022/03/08 05:57:33;;;;;;;33.50;19.60;;;2.00;74.60;;;;;;5026706;28;20226;-68
2022/03/08 06:00:01;;;;;;;37.93;22.77;;;2.00;74.70;;;;;;5026572;28;20563;-68
2022/03/08 06:02:37;;;;;;;38.13;21.47;;;2.00;74.70;;;;;;5024111;28;20211;-68
2022/03/08 06:05:05;;;;;;;38.07;20.67;;;2.10;74.70;;;;;;5019679;28;20204;-68
2022/03/08 06:07:32;;;;;;;33.80;20.00;;;2.10;74.50;;;;;;5022805;28;20196;-68
2022/03/08 06:09:59;;;;;;;33.83;20.10;;;2.10;74.50;;;;;;5005203;28;20574;-68
2022/03/08 06:12:26;;;;;;;39.73;21.60;;;2.20;73.90;;;;;;5021218;28;20211;-68
2022/03/08 06:14:53;;;;;;;31.50;19.43;;;2.30;73.30;;;;;;5001662;28;20231;-68
2022/03/08 06:17:20;;;;;;;30.23;19.07;;;2.40;72.30;;;;;;5017127;28;20227;-68
2022/03/08 06:19:47;;;;;;;37.33;21.10;;;2.30;71.70;;;;;;5020260;28;20549;-68
2022/03/08 06:22:14;;;;;;;39.77;22.50;;;2.30;71.70;;;;;;5022409;28;20513;-68
2022/03/08 06:24:41;;;;;;;28.80;18.87;;;2.20;72.00;;;;;;5029909;28;20640;-68
2022/03/08 06:27:09;;;;;;;30.80;18.93;;;2.10;71.50;;;;;;5021098;28;20196;-68
2022/03/08 06:29:36;;;;;;;35.90;19.73;;;2.00;71.00;;;;;;5017771;28;20200;-68
2022/03/08 06:32:03;;;;;;;39.40;19.97;;;2.00;71.60;;;;;;5023856;28;20214;-68
2022/03/08 06:34:30;;;;;;;33.27;19.90;;;1.90;72.10;;;;;;5024735;28;20230;-68
2022/03/08 06:36:57;;;;;;;35.20;20.87;;;1.90;72.60;;;;;;5019903;28;20208;-68
2022/03/08 06:39:24;;;;;;;39.53;20.63;;;1.90;73.00;;;;;;5017598;28;20230;-68
2022/03/08 06:41:51;;;;;;;36.03;20.50;;;1.90;73.00;;;;;;5021924;28;20207;-68
2022/03/08 06:44:18;;;;;;;35.70;19.80;;;1.90;73.10;;;;;;5023128;28;20206;-68
2022/03/08 06:46:46;;;;;;;37.30;21.47;;;1.90;73.30;;;;;;5019566;28;20207;-68
2022/03/08 06:49:14;;;;;;;37.27;22.17;;;2.00;73.60;;;;;;5016084;28;20207;-68
2022/03/08 06:51:41;;;;;;;49.50;23.20;;;2.10;74.10;;;;;;5011497;28;20661;-68
2022/03/08 06:54:08;;;;;;;45.87;24.33;;;2.10;74.20;;;;;;5021902;28;20199;-68
2022/03/08 06:56:36;;;;;;;51.83;24.10;;;2.20;74.20;;;;;;5027949;28;20570;-68
2022/03/08 06:59:04;;;;;;;52.47;26.33;;;2.30;74.10;;;;;;5019977;28;20659;-68
2022/03/08 07:01:31;;;;;;;48.83;25.27;;;2.30;74.20;;;;;;5017334;28;20541;-68
2022/03/08 07:03:58;;;;;;;50.97;25.43;;;2.40;74.40;;;;;;5021514;28;20207;-68
2022/03/08 07:06:25;;;;;;;38.30;23.07;;;2.50;74.50;;;;;;5024848;28;20219;-68
2022/03/08 07:08:53;;;;;;;41.67;25.03;;;2.50;74.50;;;;;;5019584;28;20204;-68
2022/03/08 07:11:21;;;;;;;40.73;26.87;;;2.60;74.60;;;;;;5016257;28;20212;-68
2022/03/08 07:13:48;;;;;;;41.20;26.10;;;2.70;74.70;;;;;;5022907;28;20213;-68
2022/03/08 07:16:16;;;;;;;36.67;23.47;;;2.80;74.70;;;;;;5026456;28;20287;-68
2022/03/08 07:18:43;;;;;;;41.00;24.93;;;2.90;74.70;;;;;;4996188;28;20231;-68
2022/03/08 07:21:10;;;;;;;42.20;25.90;;;3.00;74.60;;;;;;5022169;28;20200;-68
2022/03/08 07:23:37;;;;;;;41.47;25.07;;;3.20;74.50;;;;;;5016073;28;20207;-68
2022/03/08 07:26:04;;;;;;;41.60;24.40;;;3.30;74.20;;;;;;5020927;28;20214;-68
2022/03/08 07:28:31;;;;;;;43.50;25.63;;;3.40;74.00;;;;;;5007108;28;20196;-68
2022/03/08 07:31:01;;;;;;;42.20;25.53;;;3.50;73.90;;;;;;5019382;28;20204;-68
2022/03/08 07:33:29;;;;;;;39.53;25.97;;;3.60;74.00;;;;;;5015397;28;20271;-68
2022/03/08 07:35:56;;;;;;;41.33;25.53;;;3.70;73.90;;;;;;5018791;28;20208;-68
2022/03/08 07:38:24;;;;;;;46.27;27.07;;;3.80;73.70;;;;;;5023892;28;20214;-68
2022/03/08 07:40:51;;;;;;;40.83;27.23;;;3.90;73.40;;;;;;5019733;28;20551;-68
2022/03/08 07:43:18;;;;;;;44.97;25.97;;;4.00;73.20;;;;;;5016472;28;20204;-68
2022/03/08 07:45:45;;;;;;;40.30;25.93;;;4.10;72.90;;;;;;5019945;28;20218;-68
2022/03/08 07:48:13;;;;;;;41.43;25.50;;;4.20;72.90;;;;;;5024149;28;20212;-68
2022/03/08 07:50:40;;;;;;;44.57;26.33;;;4.30;72.70;;;;;;5008922;28;20205;-68
2022/03/08 07:53:07;;;;;;;38.27;26.07;;;4.40;72.00;;;;;;5024500;28;20216;-68
2022/03/08 07:55:34;;;;;;;39.77;24.53;;;4.50;71.40;;;;;;5015590;28;20208;-68
2022/03/08 07:58:02;;;;;;;43.53;26.53;;;4.50;71.20;;;;;;5000511;28;20551;-68
2022/03/08 08:00:31;;;;;;;45.60;28.83;;;4.60;71.80;;;;;;5023288;28;20240;-68
2022/03/08 08:02:59;;;;;;;46.83;29.57;;;4.60;72.60;;;;;;5017993;28;20210;-68
2022/03/08 08:05:27;;;;;;;49.57;29.13;;;4.70;72.40;;;;;;4997793;28;20207;-68
2022/03/08 08:07:55;;;;;;;52.00;30.53;;;4.70;71.70;;;;;;5016983;28;20235;-68
2022/03/08 08:10:22;;;;;;;57.83;33.00;;;4.80;72.10;;;;;;5027645;28;20267;-68
2022/03/08 08:12:49;;;;;;;62.00;35.80;;;4.90;71.80;;;;;;5021668;28;20241;-68
2022/03/08 08:15:16;;;;;;;63.83;37.47;;;5.00;71.40;;;;;;5018182;28;20285;-68
2022/03/08 08:17:43;;;;;;;62.50;35.80;;;5.20;72.00;;;;;;5019340;28;20212;-68
2022/03/08 08:20:11;;;;;;;53.70;34.63;;;5.30;71.20;;;;;;5002117;28;20222;-68
2022/03/08 08:22:38;;;;;;;46.37;30.13;;;5.50;70.70;;;;;;5002871;28;20202;-69
2022/03/08 08:25:06;;;;;;;42.40;28.23;;;5.60;70.30;;;;;;5005715;28;20206;-68
2022/03/08 08:27:34;;;;;;;42.60;24.67;;;5.80;70.40;;;;;;5016339;28;20206;-68
2022/03/08 08:30:01;;;;;;;34.40;22.07;;;5.90;69.40;;;;;;5012925;28;20219;-68
2022/03/08 08:32:28;;;;;;;37.00;22.70;;;6.10;68.40;;;;;;5020578;28;20210;-68
2022/03/08 08:34:55;;;;;;;36.67;21.33;;;6.30;66.50;;;;;;5006904;28;20225;-68
2022/03/08 08:37:22;;;;;;;33.43;21.37;;;6.40;66.40;;;;;;5022035;28;20214;-68
2022/03/08 08:39:49;;;;;;;29.43;18.53;;;6.60;64.30;;;;;;5018482;28;20310;-68
2022/03/08 08:42:16;;;;;;;27.93;17.20;;;6.80;63.20;;;;;;5032744;28;20214;-68
2022/03/08 08:44:45;;;;;;;28.60;16.87;;;6.90;61.00;;;;;;5027233;28;20300;-68
2022/03/08 08:47:12;;;;;;;23.07;12.53;;;7.10;61.00;;;;;;5030725;28;20202;-68
2022/03/08 08:49:40;;;;;;;27.40;15.40;;;7.20;58.30;;;;;;5004667;28;20222;-68
2022/03/08 08:52:07;;;;;;;22.90;12.40;;;7.40;58.20;;;;;;5022572;28;20584;-68
2022/03/08 08:54:34;;;;;;;17.53;12.33;;;7.50;56.80;;;;;;5024205;28;20203;-68
2022/03/08 08:57:01;;;;;;;20.60;11.00;;;7.70;56.90;;;;;;5027446;28;20602;-68
2022/03/08 08:59:28;;;;;;;12.40;9.10;;;7.80;55.40;;;;;;5020649;28;20250;-68
2022/03/08 09:01:55;;;;;;;13.33;8.30;;;8.00;54.20;;;;;;4998035;28;20636;-68
2022/03/08 09:04:22;;;;;;;16.27;9.60;;;8.20;52.40;;;;;;5027430;28;20266;-68
2022/03/08 09:06:50;;;;;;;16.27;10.40;;;8.30;52.10;;;;;;5027601;28;20207;-69
2022/03/08 09:09:17;;;;;;;20.50;10.97;;;8.50;52.90;;;;;;5023432;28;20614;-68
2022/03/08 09:11:45;;;;;;;16.53;9.97;;;8.60;51.50;;;;;;5030801;28;20213;-68
2022/03/08 09:14:12;;;;;;;9.23;6.83;;;8.70;52.00;;;;;;5019812;28;20587;-68
2022/03/08 09:16:40;;;;;;;11.33;7.47;;;8.90;50.00;;;;;;5025847;28;20641;-68
2022/03/08 09:19:08;;;;;;;10.27;6.40;;;9.00;50.00;;;;;;5028917;28;20674;-68
2022/03/08 09:21:35;;;;;;;10.37;6.13;;;9.10;48.00;;;;;;5022625;28;20199;-68
2022/03/08 09:24:02;;;;;;;10.43;5.77;;;9.20;48.80;;;;;;5018495;28;20204;-68
2022/03/08 09:26:30;;;;;;;9.87;6.10;;;9.30;47.60;;;;;;5021032;28;20230;-68
2022/03/08 09:28:57;;;;;;;10.93;5.77;;;9.40;47.80;;;;;;5026450;28;20203;-68
2022/03/08 09:31:24;;;;;;;6.80;5.37;;;9.60;48.80;;;;;;5023063;28;20196;-68
2022/03/08 09:33:53;;;;;;;10.60;5.87;;;9.70;48.30;;;;;;5018480;28;20208;-68
2022/03/08 09:36:20;;;;;;;6.33;5.00;;;9.80;46.00;;;;;;5028059;28;20195;-68
2022/03/08 09:38:47;;;;;;;8.27;4.90;;;9.80;46.60;;;;;;5012109;28;20204;-68
2022/03/08 09:41:15;;;;;;;9.27;5.60;;;9.80;47.10;;;;;;5028718;28;20231;-68
2022/03/08 09:43:43;;;;;;;9.17;6.00;;;9.90;47.20;;;;;;5022270;28;20196;-68
2022/03/08 09:46:10;;;;;;;11.37;7.17;;;9.90;46.20;;;;;;5017817;28;20295;-68
2022/03/08 09:48:37;;;;;;;9.10;5.90;;;10.00;46.10;;;;;;5023115;28;20520;-68
2022/03/08 09:51:05;;;;;;;11.20;6.57;;;10.00;46.20;;;;;;5025013;28;20207;-68
2022/03/08 09:53:35;;;;;;;8.33;7.03;;;10.10;45.30;;;;;;5005755;28;20216;-68
2022/03/08 09:56:05;;;;;;;7.37;6.63;;;10.10;45.80;;;;;;4998983;28;20315;-68
2022/03/08 09:58:32;;;;;;;8.20;6.27;;;10.20;45.80;;;;;;5018974;28;20204;-69
2022/03/08 10:01:03;;;;;;;10.27;7.00;;;10.30;46.30;;;;;;5028060;28;20244;-69
2022/03/08 10:03:43;;;;;;;8.77;6.50;;;10.30;45.30;;;;;;5019626;28;20219;-69
2022/03/08 10:06:11;;;;;;;9.33;6.77;;;10.40;45.10;;;;;;5018945;28;20204;-69
2022/03/08 10:08:38;;;;;;;15.80;7.43;;;10.50;44.20;;;;;;5019394;28;20196;-69
2022/03/08 10:11:09;;;;;;;10.73;6.90;;;10.60;44.50;;;;;;5021868;28;20214;-69
2022/03/08 10:13:49;;;;;;;9.83;6.97;;;10.70;44.40;;;;;;5010252;28;20223;-69
2022/03/08 10:16:23;;;;;;;10.27;6.63;;;10.80;43.70;;;;;;5024491;28;20213;-69
2022/03/08 10:19:03;;;;;;;13.97;7.43;;;10.90;44.10;;;;;;5016953;28;20265;-69
2022/03/08 10:21:37;;;;;;;9.33;7.17;;;11.00;44.00;;;;;;5019778;28;20333;-69
2022/03/08 10:24:14;;;;;;;9.17;7.07;;;11.30;44.40;;;;;;5024775;28;20203;-69
2022/03/08 10:26:46;;;;;;;9.13;6.63;;;11.50;44.40;;;;;;5020300;28;20202;-69
2022/03/08 10:29:13;;;;;;;8.47;6.40;;;11.80;43.50;;;;;;5017777;28;20201;-69
2022/03/08 10:31:40;;;;;;;9.17;6.63;;;11.90;42.00;;;;;;5026084;28;20208;-69
2022/03/08 10:34:15;;;;;;;7.67;6.27;;;12.00;43.00;;;;;;5021935;28;20288;-69
2022/03/08 10:36:58;;;;;;;7.77;5.47;;;12.00;42.80;;;;;;5027030;28;20209;-69
2022/03/08 10:39:26;;;;;;;9.40;6.87;;;12.10;42.80;;;;;;5022431;28;20209;-69
2022/03/08 10:41:56;;;;;;;10.67;6.90;;;12.20;43.20;;;;;;5017534;28;20260;-69
2022/03/08 10:44:39;;;;;;;7.17;5.40;;;12.30;42.40;;;;;;5003650;28;20212;-69
2022/03/08 10:47:10;;;;;;;7.47;5.43;;;12.40;42.10;;;;;;5023258;28;20205;-69
2022/03/08 10:49:53;;;;;;;6.13;4.63;;;12.30;40.80;;;;;;5019503;28;20548;-69
2022/03/08 10:52:33;;;;;;;10.10;4.53;;;12.40;41.60;;;;;;5016584;28;20225;-69
2022/03/08 10:55:21;;;;;;;6.67;5.60;;;12.40;41.00;;;;;;5022562;28;20523;-69
2022/03/08 10:57:54;;;;;;;5.60;4.37;;;12.40;39.40;;;;;;5016810;28;20209;-69
2022/03/08 11:00:23;;;;;;;5.50;4.33;;;12.30;40.20;;;;;;5017949;28;20238;-69
2022/03/08 11:02:56;;;;;;;5.83;4.80;;;12.10;40.00;;;;;;5019310;28;20201;-69
2022/03/08 11:05:32;;;;;;;6.93;5.37;;;12.00;40.50;;;;;;5013219;28;20535;-69
2022/03/08 11:07:59;;;;;;;8.90;5.13;;;12.00;40.50;;;;;;5023887;28;20513;-69
2022/03/08 11:10:28;;;;;;;7.10;6.13;;;12.00;40.80;;;;;;5026469;28;20202;-69
2022/03/08 11:12:56;;;;;;;8.57;4.97;;;12.10;41.40;;;;;;5016814;28;20656;-69
2022/03/08 11:15:24;;;;;;;6.73;5.30;;;12.20;40.50;;;;;;5017685;28;20524;-69
2022/03/08 11:17:54;;;;;;;8.63;5.03;;;12.30;38.40;;;;;;5015293;28;20210;-69
2022/03/08 11:20:23;;;;;;;8.23;5.90;;;12.10;39.90;;;;;;5025960;28;20231;-69
2022/03/08 11:22:51;;;;;;;8.13;5.63;;;11.90;40.90;;;;;;5017888;28;20211;-69
2022/03/08 11:25:19;;;;;;;8.93;5.67;;;11.80;41.70;;;;;;5015908;28;20206;-69
2022/03/08 11:28:07;;;;;;;6.07;5.17;;;11.70;39.50;;;;;;5028049;28;20217;-69
2022/03/08 11:30:45;;;;;;;8.03;5.73;;;11.70;40.30;;;;;;5020705;28;20216;-69
2022/03/08 11:33:34;;;;;;;6.70;4.87;;;11.80;41.00;;;;;;5014723;28;20209;-69
2022/03/08 11:36:22;;;;;;;6.07;4.90;;;12.10;39.30;;;;;;5013036;28;20220;-69
2022/03/08 11:39:16;;;;;;;6.97;5.13;;;12.30;39.00;;;;;;5021160;28;20202;-69
2022/03/08 11:41:53;;;;;;;7.53;5.33;;;12.30;37.70;;;;;;5024696;28;20234;-69
2022/03/08 11:44:24;;;;;;;9.27;5.60;;;12.20;38.40;;;;;;5020803;28;20236;-69
2022/03/08 11:47:09;;;;;;;7.67;5.67;;;12.10;38.30;;;;;;5014232;28;20205;-69
2022/03/08 11:49:56;;;;;;;7.17;5.30;;;12.10;39.00;;;;;;5020134;28;20228;-69
2022/03/08 11:52:43;;;;;;;7.07;4.97;;;12.30;40.40;;;;;;5023763;28;20202;-69
2022/03/08 11:55:13;;;;;;;8.97;5.63;;;12.50;39.30;;;;;;5019081;28;20212;-69
2022/03/08 11:57:54;;;;;;;7.73;5.33;;;12.60;37.60;;;;;;4998241;28;20213;-69
2022/03/08 12:00:30;;;;;;;7.03;5.97;;;12.70;37.20;;;;;;5015496;28;20606;-69
2022/03/08 12:03:03;;;;;;;6.77;5.93;;;12.80;37.90;;;;;;5023616;28;20545;-69
2022/03/08 12:05:42;;;;;;;8.57;7.17;;;12.70;38.60;;;;;;5022067;28;20234;-69
2022/03/08 12:08:22;;;;;;;6.57;5.80;;;12.60;39.50;;;;;;5018816;28;20220;-69
2022/03/08 12:10:52;;;;;;;10.00;7.07;;;12.50;37.60;;;;;;5021587;28;20290;-69
2022/03/08 12:13:42;;;;;;;12.37;7.23;;;12.50;37.60;;;;;;5022432;28;20311;-69
2022/03/08 12:16:09;;;;;;;10.43;8.00;;;12.60;38.40;;;;;;5024235;28;20213;-69
2022/03/08 12:18:58;;;;;;;9.70;7.03;;;12.70;37.90;;;;;;5019277;28;20233;-69
2022/03/08 12:21:25;;;;;;;9.97;6.80;;;12.70;37.30;;;;;;4995098;28;20660;-69
2022/03/08 12:24:07;;;;;;;9.40;6.73;;;12.70;36.50;;;;;;5030337;28;20803;-69
2022/03/08 12:26:37;;;;;;;9.70;6.27;;;12.50;37.70;;;;;;5028443;28;20198;-69
2022/03/08 12:29:36;;;;;;;7.27;5.63;;;12.40;37.40;;;;;;5026507;28;20214;-69
2022/03/08 12:32:04;;;;;;;7.37;5.97;;;12.30;38.50;;;;;;5017875;28;20209;-69
2022/03/08 12:34:42;;;;;;;11.53;6.23;;;12.30;38.40;;;;;;5008845;28;20273;-68
2022/03/08 12:37:54;;;;;;;7.60;6.27;;;12.30;38.60;;;;;;5027832;28;20279;-68
2022/03/08 12:40:23;;;;;;;8.03;6.20;;;12.40;37.90;;;;;;5018449;28;20228;-68
2022/03/08 12:42:57;;;;;;;7.00;6.20;;;12.50;36.80;;;;;;5019621;28;20201;-68
2022/03/08 12:45:30;;;;;;;9.73;7.80;;;12.60;37.00;;;;;;5022321;28;20588;-68
2022/03/08 12:48:07;;;;;;;9.80;7.60;;;12.70;35.70;;;;;;5022002;28;20270;-69
2022/03/08 12:50:42;;;;;;;9.20;6.83;;;12.90;35.80;;;;;;5027893;28;20664;-69